createdAt,value
2018-07-03T00:00:19.678Z,71.28
2018-07-03T00:01:19.740Z,71.57
2018-07-03T00:03:12.744Z,71.86
2018-07-03T00:04:12.802Z,71.86
2018-07-03T00:06:05.801Z,71.76
2018-07-03T00:07:05.862Z,71.95
2018-07-03T00:08:58.862Z,72.05
2018-07-03T00:09:58.917Z,72.24
2018-07-03T00:11:51.917Z,72.20
2018-07-03T00:12:51.978Z,72.43
2018-07-03T00:14:44.969Z,72.39
2018-07-03T00:15:45.038Z,72.20
2018-07-03T00:17:38.036Z,72.11
2018-07-03T00:18:38.102Z,72.30
2018-07-03T00:20:31.086Z,72.30
2018-07-03T00:21:31.152Z,72.30
2018-07-03T00:23:24.148Z,72.20
2018-07-03T00:24:24.206Z,72.39
2018-07-03T00:26:17.206Z,72.11
2018-07-03T00:27:17.266Z,72.20
2018-07-03T00:29:10.254Z,72.39
2018-07-03T00:30:10.322Z,71.92
2018-07-03T00:32:03.321Z,72.01
2018-07-03T00:33:03.374Z,72.59
2018-07-03T00:34:56.376Z,72.49
2018-07-03T00:35:56.436Z,72.49
2018-07-03T00:37:49.449Z,72.20
2018-07-03T00:38:49.495Z,72.20
2018-07-03T00:40:42.487Z,72.36
2018-07-03T00:41:42.552Z,72.27
2018-07-03T00:43:35.551Z,72.64
2018-07-03T00:44:35.607Z,72.64
2018-07-03T00:46:28.601Z,72.07
2018-07-03T00:47:28.665Z,71.98
2018-07-03T00:49:21.667Z,72.07
2018-07-03T00:50:21.723Z,72.55
2018-07-03T00:52:14.723Z,72.07
2018-07-03T00:53:14.784Z,72.07
2018-07-03T00:55:07.772Z,71.88
2018-07-03T00:56:07.834Z,72.07
2018-07-03T00:58:00.838Z,71.78
2018-07-03T00:59:00.895Z,72.36
2018-07-03T01:00:53.889Z,71.88
2018-07-03T01:01:53.956Z,72.07
2018-07-03T01:03:46.952Z,72.07
2018-07-03T01:04:47.005Z,72.45
2018-07-03T01:06:40.000Z,72.27
2018-07-03T01:07:40.061Z,72.36
2018-07-03T01:09:33.060Z,72.27
2018-07-03T01:10:33.115Z,72.45
2018-07-03T01:12:26.116Z,71.98
2018-07-03T01:13:26.175Z,72.27
2018-07-03T01:15:19.175Z,71.98
2018-07-03T01:16:19.236Z,72.17
2018-07-03T01:18:12.239Z,71.94
2018-07-03T01:19:12.299Z,72.03
2018-07-03T01:21:05.291Z,72.36
2018-07-03T01:22:05.354Z,71.75
2018-07-03T01:23:58.354Z,71.78
2018-07-03T01:24:58.410Z,72.13
2018-07-03T01:26:51.404Z,71.46
2018-07-03T01:27:51.468Z,71.46
2018-07-03T01:29:44.465Z,71.37
2018-07-03T01:30:44.525Z,71.27
2018-07-03T01:32:37.514Z,71.75
2018-07-03T01:33:37.580Z,71.37
2018-07-03T01:35:30.578Z,70.89
2018-07-03T01:36:30.638Z,70.98
2018-07-03T01:38:23.636Z,70.60
2018-07-03T01:39:23.693Z,70.79
2018-07-03T01:41:16.689Z,70.89
2018-07-03T01:42:16.753Z,69.83
2018-07-03T01:44:09.751Z,69.93
2018-07-03T01:45:09.810Z,70.12
2018-07-03T01:47:02.807Z,69.64
2018-07-03T01:48:02.868Z,69.64
2018-07-03T01:49:55.867Z,70.12
2018-07-03T01:50:55.922Z,69.45
2018-07-03T01:52:48.915Z,69.64
2018-07-03T01:53:48.978Z,69.64
2018-07-03T01:55:41.977Z,69.54
2018-07-03T01:56:42.033Z,69.35
2018-07-03T01:58:35.024Z,69.54
2018-07-03T01:59:35.089Z,69.35
2018-07-03T02:01:28.086Z,69.17
2018-07-03T02:02:28.145Z,69.07
2018-07-03T02:04:21.143Z,68.97
2018-07-03T02:05:21.201Z,68.78
2018-07-03T02:07:14.193Z,68.87
2018-07-03T02:08:14.256Z,68.78
2018-07-03T02:10:07.257Z,68.11
2018-07-03T02:11:07.311Z,68.21
2018-07-03T02:13:00.310Z,67.91
2018-07-03T02:14:00.373Z,68.01
2018-07-03T02:15:53.372Z,67.91
2018-07-03T02:16:53.428Z,68.30
2018-07-03T02:18:46.420Z,68.01
2018-07-03T02:19:46.485Z,67.63
2018-07-03T02:21:39.480Z,67.50
2018-07-03T02:22:39.536Z,67.50
2018-07-03T02:24:32.545Z,67.34
2018-07-03T02:25:32.591Z,67.34
2018-07-03T02:27:25.580Z,67.63
2018-07-03T02:28:25.646Z,66.86
2018-07-03T02:30:18.642Z,66.67
2018-07-03T02:31:18.696Z,66.96
2018-07-03T02:33:11.695Z,67.05
2018-07-03T02:34:11.749Z,67.15
2018-07-03T02:36:04.733Z,66.35
2018-07-03T02:37:04.804Z,66.38
2018-07-03T02:38:57.799Z,66.48
2018-07-03T02:39:57.856Z,66.29
2018-07-03T02:41:50.855Z,65.97
2018-07-03T02:42:50.910Z,65.91
2018-07-03T02:44:43.901Z,65.49
2018-07-03T02:45:43.963Z,65.88
2018-07-03T02:47:36.959Z,65.01
2018-07-03T02:48:37.016Z,65.11
2018-07-03T02:50:30.007Z,64.63
2018-07-03T02:51:30.069Z,64.72
2018-07-03T02:53:23.579Z,64.34
2018-07-03T02:54:23.630Z,64.72
2018-07-03T02:56:16.619Z,64.34
2018-07-03T02:57:16.685Z,64.34
2018-07-03T02:59:09.685Z,63.76
2018-07-03T03:00:09.741Z,63.96
2018-07-03T03:02:02.740Z,63.86
2018-07-03T03:03:02.795Z,63.76
2018-07-03T03:04:55.786Z,62.90
2018-07-03T03:05:55.850Z,63.29
2018-07-03T03:07:48.854Z,62.62
2018-07-03T03:08:48.920Z,62.14
2018-07-03T03:10:41.904Z,62.62
2018-07-03T03:11:41.968Z,62.04
2018-07-03T03:13:34.970Z,61.91
2018-07-03T03:14:35.027Z,61.47
2018-07-03T03:16:28.020Z,61.47
2018-07-03T03:17:28.088Z,61.28
2018-07-03T03:19:21.083Z,60.80
2018-07-03T03:20:21.141Z,61.05
2018-07-03T03:22:14.138Z,60.48
2018-07-03T03:23:14.201Z,59.91
2018-07-03T03:25:07.201Z,59.91
2018-07-03T03:26:07.253Z,59.81
2018-07-03T03:28:00.257Z,59.62
2018-07-03T03:29:00.312Z,59.81
2018-07-03T03:30:53.304Z,60.19
2018-07-03T03:31:53.366Z,60.19
2018-07-03T03:33:46.375Z,59.43
2018-07-03T03:34:46.426Z,59.52
2018-07-03T03:36:39.421Z,59.52
2018-07-03T03:37:39.487Z,59.52
2018-07-03T03:39:32.484Z,59.72
2018-07-03T03:40:32.545Z,59.62
2018-07-03T03:42:25.532Z,59.14
2018-07-03T03:43:25.603Z,59.72
2018-07-03T03:45:18.596Z,59.33
2018-07-03T03:46:18.658Z,59.23
2018-07-03T03:48:11.648Z,59.81
2018-07-03T03:49:11.711Z,58.95
2018-07-03T03:51:04.714Z,59.14
2018-07-03T03:52:04.771Z,59.23
2018-07-03T03:53:58.277Z,59.23
2018-07-03T03:54:58.337Z,58.47
2018-07-03T03:56:51.320Z,58.95
2018-07-03T03:57:51.381Z,59.14
2018-07-03T03:59:44.379Z,59.14
2018-07-03T04:00:44.432Z,59.55
2018-07-03T04:02:37.426Z,59.45
2018-07-03T04:03:37.488Z,59.45
2018-07-03T04:05:30.486Z,59.27
2018-07-03T04:06:30.540Z,59.75
2018-07-03T04:08:23.530Z,59.36
2018-07-03T04:09:23.592Z,59.36
2018-07-03T04:11:16.588Z,59.45
2018-07-03T04:12:16.647Z,59.94
2018-07-03T04:14:09.643Z,59.84
2018-07-03T04:15:09.699Z,59.55
2018-07-03T04:17:02.689Z,60.22
2018-07-03T04:18:02.752Z,59.94
2018-07-03T04:19:55.750Z,59.65
2018-07-03T04:20:55.807Z,60.13
2018-07-03T04:22:48.795Z,59.36
2018-07-03T04:23:48.859Z,59.36
2018-07-03T04:25:41.854Z,59.36
2018-07-03T04:26:41.907Z,59.45
2018-07-03T04:28:34.905Z,59.36
2018-07-03T04:29:34.966Z,59.75
2018-07-03T04:31:27.965Z,59.36
2018-07-03T04:32:28.018Z,59.36
2018-07-03T04:34:21.016Z,59.55
2018-07-03T04:35:21.085Z,59.45
2018-07-03T04:37:14.075Z,58.69
2018-07-03T04:38:14.139Z,59.17
2018-07-03T04:40:07.126Z,59.45
2018-07-03T04:41:07.182Z,59.75
2018-07-03T04:43:00.170Z,59.36
2018-07-03T04:44:00.233Z,58.69
2018-07-03T04:45:53.230Z,59.75
2018-07-03T04:46:53.290Z,59.45
2018-07-03T04:48:46.276Z,60.44
2018-07-03T04:49:46.338Z,59.87
2018-07-03T04:51:39.338Z,59.39
2018-07-03T04:52:39.402Z,60.44
2018-07-03T04:54:32.411Z,60.54
2018-07-03T04:55:32.452Z,60.44
2018-07-03T04:57:25.444Z,61.11
2018-07-03T04:58:25.508Z,61.21
2018-07-03T05:00:18.505Z,60.73
2018-07-03T05:01:18.562Z,60.93
2018-07-03T05:03:11.549Z,61.11
2018-07-03T05:04:11.615Z,60.93
2018-07-03T05:06:04.615Z,61.40
2018-07-03T05:07:04.674Z,61.21
2018-07-03T05:08:57.667Z,60.83
2018-07-03T05:09:57.735Z,61.11
2018-07-03T05:11:50.730Z,61.60
2018-07-03T05:12:50.786Z,61.31
2018-07-03T05:14:43.777Z,62.10
2018-07-03T05:15:43.840Z,61.50
2018-07-03T05:17:36.845Z,61.63
2018-07-03T05:18:36.906Z,62.01
2018-07-03T05:20:29.898Z,61.24
2018-07-03T05:21:29.952Z,61.82
2018-07-03T05:23:22.961Z,60.28
2018-07-03T05:24:23.023Z,61.53
2018-07-03T05:26:16.019Z,61.63
2018-07-03T05:27:16.078Z,61.43
2018-07-03T05:29:09.067Z,62.30
2018-07-03T05:30:09.128Z,62.20
2018-07-03T05:32:02.133Z,62.30
2018-07-03T05:33:02.197Z,62.20
2018-07-03T05:34:55.186Z,61.66
2018-07-03T05:35:55.252Z,61.27
2018-07-03T05:37:48.242Z,62.52
2018-07-03T05:38:48.300Z,63.09
2018-07-03T05:40:41.290Z,63.19
2018-07-03T05:41:41.353Z,63.76
2018-07-03T05:43:34.359Z,63.38
2018-07-03T05:44:34.417Z,64.63
2018-07-03T05:46:27.415Z,64.63
2018-07-03T05:47:27.471Z,64.25
2018-07-03T05:49:20.462Z,64.05
2018-07-03T05:50:20.524Z,63.67
2018-07-03T05:52:13.528Z,63.48
2018-07-03T05:53:13.589Z,63.67
2018-07-03T05:55:06.584Z,63.89
2018-07-03T05:56:06.643Z,63.70
2018-07-03T05:57:59.652Z,63.51
2018-07-03T05:58:59.699Z,65.23
2018-07-03T06:00:52.698Z,65.72
2018-07-03T06:01:52.760Z,65.52
2018-07-03T06:03:45.812Z,64.79
2018-07-03T06:04:45.814Z,65.05
2018-07-03T06:06:38.814Z,66.42
2018-07-03T06:07:38.874Z,65.84
2018-07-03T06:09:31.908Z,66.84
2018-07-03T06:10:31.965Z,68.08
2018-07-03T06:12:24.931Z,67.74
2018-07-03T06:13:24.988Z,69.21
2018-07-03T06:15:17.985Z,69.15
2018-07-03T06:16:18.047Z,69.09
2018-07-03T06:18:11.048Z,68.54
2018-07-03T06:19:11.104Z,68.00
2018-07-03T06:21:04.097Z,65.91
2018-07-03T06:22:04.166Z,60.44
2018-07-03T06:23:57.173Z,50.48
2018-07-03T06:24:57.215Z,48.03
2018-07-03T06:26:50.717Z,42.99
2018-07-03T06:27:50.778Z,41.16
2018-07-03T06:29:43.782Z,38.59
2018-07-03T06:30:43.855Z,37.46
2018-07-03T06:32:36.840Z,35.24
2018-07-03T06:33:36.909Z,35.27
2018-07-03T06:35:29.922Z,33.70
2018-07-03T06:36:29.987Z,33.59
2018-07-03T06:38:22.994Z,34.09
2018-07-03T06:39:23.060Z,33.43
2018-07-03T06:41:16.068Z,32.97
2018-07-03T06:42:16.244Z,32.45
2018-07-03T06:44:09.153Z,32.56
2018-07-03T06:45:09.218Z,32.09
2018-07-03T06:47:02.245Z,32.75
2018-07-03T06:48:02.314Z,33.45
2018-07-03T06:49:55.327Z,32.46
2018-07-03T06:50:55.395Z,35.32
2018-07-03T06:52:48.625Z,33.46
2018-07-03T06:53:48.483Z,34.77
2018-07-03T06:55:41.511Z,32.94
2018-07-03T06:56:41.573Z,31.70
2018-07-03T06:58:34.596Z,32.64
2018-07-03T06:59:34.662Z,31.89
2018-07-03T07:01:27.677Z,30.27
2018-07-03T07:02:27.755Z,30.38
2018-07-03T07:04:20.778Z,30.30
2018-07-03T07:05:20.848Z,31.02
2018-07-03T07:07:13.867Z,30.08
2018-07-03T07:08:13.948Z,29.20
2018-07-03T07:10:06.962Z,27.92
2018-07-03T07:11:07.034Z,28.05
2018-07-03T07:13:00.061Z,27.95
2018-07-03T07:14:00.137Z,27.58
2018-07-03T07:15:53.162Z,25.95
2018-07-03T07:16:53.227Z,25.97
2018-07-03T07:18:46.276Z,25.59
2018-07-03T07:19:46.337Z,24.86
2018-07-03T07:21:39.356Z,26.41
2018-07-03T07:22:39.438Z,26.41
2018-07-03T07:24:32.466Z,24.98
2018-07-03T07:25:32.546Z,24.67
2018-07-03T07:27:26.080Z,25.18
2018-07-03T07:28:26.148Z,24.68
2018-07-03T07:30:19.180Z,24.99
2018-07-03T07:31:19.248Z,24.02
2018-07-03T07:33:12.270Z,24.04
2018-07-03T07:35:24.688Z,24.32
2018-07-03T07:36:24.765Z,24.22
2018-07-03T07:38:17.779Z,23.36
2018-07-03T07:39:17.863Z,22.88
2018-07-03T07:41:10.892Z,22.00
2018-07-03T07:42:10.967Z,21.60
2018-07-03T07:44:03.996Z,22.08
2018-07-03T07:45:04.115Z,22.48
2018-07-03T07:46:57.107Z,22.95
2018-07-03T07:47:57.214Z,24.02
2018-07-03T07:49:50.210Z,23.33
2018-07-03T07:50:50.283Z,24.14
2018-07-03T07:52:43.315Z,22.47
2018-07-03T07:53:43.406Z,22.18
2018-07-03T07:55:36.430Z,22.11
2018-07-03T07:56:36.503Z,21.62
2018-07-03T07:58:29.533Z,20.97
2018-07-03T07:59:29.615Z,21.15
2018-07-03T08:01:22.651Z,22.95
2018-07-03T08:02:22.725Z,23.15
2018-07-03T08:04:15.749Z,23.00
2018-07-03T08:05:15.829Z,24.17
2018-07-03T08:07:08.864Z,22.37
2018-07-03T08:08:08.938Z,22.18
2018-07-03T08:10:01.976Z,21.22
2018-07-03T08:11:02.050Z,21.23
2018-07-03T08:12:55.076Z,19.84
2018-07-03T08:13:55.156Z,19.34
2018-07-03T08:15:48.194Z,18.85
2018-07-03T08:16:48.271Z,19.07
2018-07-03T08:18:41.303Z,18.29
2018-07-03T08:19:41.383Z,17.60
2018-07-03T08:21:34.419Z,18.88
2018-07-03T08:22:34.497Z,18.29
2018-07-03T08:24:27.532Z,17.90
2018-07-03T08:25:27.613Z,17.51
2018-07-03T08:27:21.171Z,16.03
2018-07-03T08:28:21.240Z,15.61
2018-07-03T08:30:14.275Z,16.12
2018-07-03T08:31:14.352Z,15.94
2018-07-03T08:33:07.386Z,14.83
2018-07-03T08:34:07.529Z,14.60
2018-07-03T08:36:00.516Z,15.88
2018-07-03T08:37:00.589Z,15.90
2018-07-03T08:38:53.628Z,14.44
2018-07-03T08:39:53.708Z,14.95
2018-07-03T08:41:46.751Z,14.76
2018-07-03T08:42:46.835Z,13.87
2018-07-03T08:44:39.870Z,13.36
2018-07-03T08:45:39.951Z,13.45
2018-07-03T08:47:32.994Z,13.24
2018-07-03T08:48:33.075Z,13.34
2018-07-03T08:50:26.113Z,13.44
2018-07-03T08:51:26.201Z,14.14
2018-07-03T08:53:19.248Z,13.54
2018-07-03T08:54:19.328Z,13.85
2018-07-03T08:56:13.223Z,13.23
2018-07-03T08:57:13.303Z,13.84
2018-07-03T08:59:06.342Z,13.73
2018-07-03T09:00:06.429Z,13.03
2018-07-03T09:01:59.475Z,13.53
2018-07-03T09:02:59.557Z,13.93
2018-07-03T09:04:52.596Z,13.54
2018-07-03T09:05:52.680Z,14.42
2018-07-03T09:07:45.727Z,14.39
2018-07-03T09:08:45.808Z,14.69
2018-07-03T09:10:38.852Z,14.11
2018-07-03T09:11:38.936Z,14.61
2018-07-03T09:13:31.984Z,15.13
2018-07-03T09:14:32.065Z,13.34
2018-07-03T09:16:25.122Z,13.13
2018-07-03T09:17:25.193Z,14.31
2018-07-03T09:19:18.228Z,14.03
2018-07-03T09:20:18.317Z,13.15
2018-07-03T09:22:11.363Z,12.96
2018-07-03T09:23:11.443Z,12.65
2018-07-03T09:25:04.482Z,14.13
2018-07-03T09:26:04.567Z,14.04
2018-07-03T09:27:57.611Z,12.65
2018-07-03T09:28:57.689Z,13.02
2018-07-03T09:30:50.729Z,14.27
2018-07-03T09:31:50.812Z,14.95
2018-07-03T09:33:43.858Z,14.95
2018-07-03T09:34:43.937Z,15.53
2018-07-03T09:36:36.978Z,15.52
2018-07-03T09:37:37.058Z,16.50
2018-07-03T09:39:30.107Z,19.70
2018-07-03T09:40:30.179Z,20.57
2018-07-03T09:42:23.235Z,19.76
2018-07-03T09:43:23.291Z,19.75
2018-07-03T09:45:16.320Z,21.48
2018-07-03T09:46:16.403Z,21.96
2018-07-03T09:48:09.432Z,22.02
2018-07-03T09:49:09.514Z,26.01
2018-07-03T09:51:02.529Z,24.00
2018-07-03T09:52:02.608Z,27.90
2018-07-03T09:53:55.635Z,26.06
2018-07-03T09:54:55.757Z,25.47
2018-07-03T09:56:48.725Z,24.50
2018-07-03T09:57:48.833Z,23.23
2018-07-03T09:59:41.829Z,22.07
2018-07-03T10:00:41.899Z,21.88
2018-07-03T10:02:34.919Z,24.90
2018-07-03T10:03:34.993Z,23.24
2018-07-03T10:05:28.001Z,21.39
2018-07-03T10:06:28.078Z,21.10
2018-07-03T10:08:21.098Z,21.20
2018-07-03T10:09:21.171Z,21.49
2018-07-03T10:11:14.185Z,22.75
2018-07-03T10:12:14.260Z,24.42
2018-07-03T10:14:07.279Z,22.66
2018-07-03T10:15:07.345Z,23.05
2018-07-03T10:17:00.371Z,23.54
2018-07-03T10:18:00.434Z,23.35
2018-07-03T10:19:53.462Z,22.84
2018-07-03T10:20:53.546Z,23.40
2018-07-03T10:22:46.553Z,24.37
2018-07-03T10:23:46.615Z,23.78
2018-07-03T10:25:39.638Z,23.78
2018-07-03T10:26:39.708Z,25.35
2018-07-03T10:28:32.723Z,25.26
2018-07-03T10:29:32.789Z,24.19
2018-07-03T10:31:25.846Z,23.99
2018-07-03T10:32:25.872Z,24.18
2018-07-03T10:34:18.890Z,23.29
2018-07-03T10:35:18.960Z,24.95
2018-07-03T10:37:11.982Z,25.14
2018-07-03T10:38:12.042Z,23.10
2018-07-03T10:40:05.056Z,22.97
2018-07-03T10:41:05.152Z,25.42
2018-07-03T10:42:58.169Z,24.35
2018-07-03T10:43:58.204Z,24.35
2018-07-03T10:45:51.218Z,24.65
2018-07-03T10:46:51.286Z,24.35
2018-07-03T10:48:44.327Z,24.45
2018-07-03T10:49:44.370Z,24.45
2018-07-03T10:51:37.382Z,23.77
2018-07-03T10:52:37.457Z,23.88
2018-07-03T10:54:30.487Z,28.07
2018-07-03T10:55:30.541Z,27.09
2018-07-03T10:57:23.553Z,24.56
2018-07-03T10:58:23.623Z,24.37
2018-07-03T11:00:16.640Z,24.27
2018-07-03T11:01:16.705Z,24.94
2018-07-03T11:03:09.720Z,24.74
2018-07-03T11:04:09.786Z,23.96
2018-07-03T11:06:02.802Z,25.62
2018-07-03T11:07:02.868Z,24.84
2018-07-03T11:08:55.883Z,24.83
2018-07-03T11:09:55.949Z,24.93
2018-07-03T11:11:48.959Z,26.87
2018-07-03T11:12:49.033Z,26.20
2018-07-03T11:14:42.052Z,26.59
2018-07-03T11:15:42.114Z,24.84
2018-07-03T11:17:35.121Z,27.84
2018-07-03T11:18:35.213Z,25.91
2018-07-03T11:20:28.211Z,24.55
2018-07-03T11:21:28.276Z,24.54
2018-07-03T11:23:21.286Z,28.74
2018-07-03T11:24:21.357Z,25.31
2018-07-03T11:26:14.377Z,25.40
2018-07-03T11:27:14.440Z,27.54
2018-07-03T11:29:07.454Z,27.65
2018-07-03T11:30:07.522Z,27.16
2018-07-03T11:32:00.525Z,26.29
2018-07-03T11:33:00.632Z,26.87
2018-07-03T11:34:54.180Z,28.04
2018-07-03T11:35:54.210Z,25.80
2018-07-03T11:37:47.221Z,25.99
2018-07-03T11:38:47.266Z,26.29
2018-07-03T11:40:40.279Z,24.55
2018-07-03T11:41:40.345Z,25.23
2018-07-03T11:43:33.862Z,25.31
2018-07-03T11:44:33.932Z,25.60
2018-07-03T11:46:26.946Z,26.39
2018-07-03T11:47:27.010Z,26.68
2018-07-03T11:49:20.018Z,25.13
2018-07-03T11:50:20.088Z,24.44
2018-07-03T11:52:13.100Z,24.44
2018-07-03T11:53:13.164Z,25.02
2018-07-03T11:55:06.209Z,24.93
2018-07-03T11:56:06.255Z,28.92
2018-07-03T11:57:59.265Z,28.54
2018-07-03T11:58:59.332Z,27.47
2018-07-03T12:00:52.343Z,27.56
2018-07-03T12:01:52.407Z,26.20
2018-07-03T12:03:45.433Z,26.98
2018-07-03T12:04:45.487Z,26.79
2018-07-03T12:06:38.502Z,25.13
2018-07-03T12:07:38.568Z,25.42
2018-07-03T12:09:31.576Z,27.28
2018-07-03T12:10:31.646Z,26.79
2018-07-03T12:12:24.656Z,26.59
2018-07-03T12:13:24.720Z,26.40
2018-07-03T12:15:17.734Z,25.42
2018-07-03T12:16:17.798Z,27.18
2018-07-03T12:18:10.808Z,28.64
2018-07-03T12:19:10.880Z,26.59
2018-07-03T12:21:03.901Z,25.62
2018-07-03T12:22:03.968Z,30.00
2018-07-03T12:23:56.974Z,25.52
2018-07-03T12:24:57.046Z,25.62
2018-07-03T12:26:50.057Z,25.12
2018-07-03T12:27:50.123Z,25.51
2018-07-03T12:29:43.129Z,25.62
2018-07-03T12:30:43.199Z,27.47
2018-07-03T12:32:36.214Z,24.74
2018-07-03T12:33:36.283Z,24.84
2018-07-03T12:35:29.289Z,23.75
2018-07-03T12:36:29.360Z,24.34
2018-07-03T12:38:22.371Z,23.95
2018-07-03T12:39:22.438Z,24.34
2018-07-03T12:41:15.449Z,23.85
2018-07-03T12:42:15.513Z,25.51
2018-07-03T12:44:09.055Z,24.63
2018-07-03T12:45:09.101Z,24.73
2018-07-03T12:47:02.118Z,26.39
2018-07-03T12:48:02.183Z,28.53
2018-07-03T12:49:55.212Z,24.94
2018-07-03T12:50:55.259Z,24.74
2018-07-03T12:52:48.280Z,28.64
2018-07-03T12:53:48.337Z,25.42
2018-07-03T12:55:41.344Z,25.81
2018-07-03T12:56:41.412Z,26.39
2018-07-03T12:58:34.427Z,25.31
2018-07-03T12:59:34.492Z,26.48
2018-07-03T13:01:27.500Z,25.31
2018-07-03T13:02:27.571Z,28.23
2018-07-03T13:04:21.090Z,26.58
2018-07-03T13:05:21.153Z,25.90
2018-07-03T13:07:14.163Z,25.31
2018-07-03T13:08:14.244Z,29.21
2018-07-03T13:10:07.269Z,26.29
2018-07-03T13:11:07.303Z,24.83
2018-07-03T13:13:00.319Z,24.73
2018-07-03T13:14:00.382Z,24.83
2018-07-03T13:15:53.450Z,24.54
2018-07-03T13:16:53.464Z,25.02
2018-07-03T13:18:46.478Z,27.26
2018-07-03T13:19:46.541Z,29.79
2018-07-03T13:21:39.550Z,27.75
2018-07-03T13:22:39.616Z,26.89
2018-07-03T13:24:32.631Z,26.19
2018-07-03T13:25:32.693Z,25.41
2018-07-03T13:27:25.702Z,26.97
2018-07-03T13:28:25.769Z,26.68
2018-07-03T13:30:18.781Z,26.58
2018-07-03T13:31:19.069Z,26.19
2018-07-03T13:33:11.859Z,25.80
2018-07-03T13:34:11.920Z,25.90
2018-07-03T13:36:04.930Z,26.29
2018-07-03T13:37:05.027Z,26.29
2018-07-03T13:38:58.010Z,25.90
2018-07-03T13:39:58.074Z,25.70
2018-07-03T13:41:51.085Z,25.51
2018-07-03T13:42:51.148Z,26.19
2018-07-03T13:44:44.165Z,26.48
2018-07-03T13:45:44.228Z,26.39
2018-07-03T13:47:37.235Z,25.90
2018-07-03T13:48:37.305Z,27.06
2018-07-03T13:50:30.321Z,26.39
2018-07-03T13:51:30.382Z,26.19
2018-07-03T13:53:23.394Z,26.29
2018-07-03T13:54:23.460Z,25.60
2018-07-03T13:56:16.469Z,27.45
2018-07-03T13:57:16.538Z,23.18
2018-07-03T13:59:09.550Z,21.33
2018-07-03T14:00:09.614Z,25.13
2018-07-03T14:02:02.623Z,26.30
2018-07-03T14:03:02.691Z,29.61
2018-07-03T14:04:55.706Z,25.21
2018-07-03T14:05:55.775Z,25.03
2018-07-03T14:07:48.777Z,25.02
2018-07-03T14:08:48.910Z,24.54
2018-07-03T14:10:41.863Z,24.73
2018-07-03T14:11:41.921Z,24.34
2018-07-03T14:13:34.929Z,24.83
2018-07-03T14:14:35.000Z,28.23
2018-07-03T14:16:28.016Z,28.92
2018-07-03T14:17:28.080Z,29.02
2018-07-03T14:19:21.094Z,25.51
2018-07-03T14:20:21.157Z,24.73
2018-07-03T14:22:14.164Z,26.97
2018-07-03T14:23:14.231Z,27.06
2018-07-03T14:25:07.268Z,27.26
2018-07-03T14:26:07.365Z,25.02
2018-07-03T14:28:00.327Z,27.16
2018-07-03T14:29:00.394Z,24.63
2018-07-03T14:30:53.492Z,23.85
2018-07-03T14:31:53.469Z,23.66
2018-07-03T14:33:46.477Z,25.70
2018-07-03T14:34:46.546Z,26.59
2018-07-03T14:36:39.580Z,26.39
2018-07-03T14:37:39.638Z,25.31
2018-07-03T14:39:32.634Z,25.12
2018-07-03T14:40:32.702Z,24.73
2018-07-03T14:42:25.710Z,23.27
2018-07-03T14:43:25.772Z,26.09
2018-07-03T14:45:18.789Z,25.51
2018-07-03T14:46:18.849Z,24.83
2018-07-03T14:48:11.859Z,24.72
2018-07-03T14:49:11.928Z,23.16
2018-07-03T14:51:04.939Z,23.35
2018-07-03T14:52:05.011Z,26.48
2018-07-03T14:53:58.028Z,25.31
2018-07-03T14:54:58.082Z,23.66
2018-07-03T14:56:51.101Z,23.17
2018-07-03T14:57:51.156Z,22.88
2018-07-03T14:59:44.165Z,23.17
2018-07-03T15:00:44.234Z,22.49
2018-07-03T15:02:37.249Z,22.10
2018-07-03T15:03:37.314Z,22.69
2018-07-03T15:05:30.326Z,22.39
2018-07-03T15:06:30.389Z,22.00
2018-07-03T15:08:23.393Z,21.61
2018-07-03T15:09:23.460Z,25.90
2018-07-03T15:11:16.480Z,22.97
2018-07-03T15:12:16.539Z,22.78
2018-07-03T15:14:09.546Z,23.75
2018-07-03T15:15:09.627Z,21.99
2018-07-03T15:17:02.628Z,24.93
2018-07-03T15:18:02.705Z,24.63
2018-07-03T15:19:55.700Z,23.75
2018-07-03T15:20:55.768Z,22.97
2018-07-03T15:22:48.781Z,24.15
2018-07-03T15:23:48.847Z,24.34
2018-07-03T15:25:41.864Z,23.07
2018-07-03T15:26:41.934Z,24.44
2018-07-03T15:28:35.445Z,22.99
2018-07-03T15:29:35.508Z,23.75
2018-07-03T15:31:28.519Z,22.89
2018-07-03T15:32:28.579Z,23.77
2018-07-03T15:34:21.592Z,24.74
2018-07-03T15:35:21.654Z,24.94
2018-07-03T15:37:14.665Z,24.83
2018-07-03T15:38:14.730Z,25.03
2018-07-03T15:40:07.738Z,23.86
2018-07-03T15:41:07.804Z,24.94
2018-07-03T15:43:00.815Z,22.69
2018-07-03T15:44:00.879Z,24.26
2018-07-03T15:45:53.895Z,22.89
2018-07-03T15:46:53.961Z,23.28
2018-07-03T15:48:46.980Z,22.79
2018-07-03T15:49:47.044Z,23.38
2018-07-03T15:51:40.055Z,22.88
2018-07-03T15:52:40.116Z,23.28
2018-07-03T15:54:33.133Z,23.08
2018-07-03T15:55:33.194Z,23.07
2018-07-03T15:57:26.210Z,22.88
2018-07-03T15:58:26.271Z,23.36
2018-07-03T16:00:19.288Z,23.36
2018-07-03T16:01:19.373Z,24.83
2018-07-03T16:03:12.366Z,23.07
2018-07-03T16:04:12.435Z,23.66
2018-07-03T16:06:05.443Z,23.95
2018-07-03T16:07:05.510Z,24.05
2018-07-03T16:08:58.521Z,24.44
2018-07-03T16:09:58.584Z,23.95
2018-07-03T16:11:51.592Z,23.95
2018-07-03T16:12:51.663Z,25.90
2018-07-03T16:14:45.186Z,24.83
2018-07-03T16:15:45.240Z,24.63
2018-07-03T16:17:38.255Z,24.24
2018-07-03T16:18:38.330Z,24.63
2018-07-03T16:20:31.346Z,24.34
2018-07-03T16:21:31.414Z,24.83
2018-07-03T16:23:24.420Z,25.41
2018-07-03T16:24:24.485Z,24.63
2018-07-03T16:26:17.490Z,25.31
2018-07-03T16:27:17.555Z,24.44
2018-07-03T16:29:10.577Z,24.44
2018-07-03T16:30:10.637Z,25.12
2018-07-03T16:32:03.645Z,25.02
2018-07-03T16:33:03.712Z,23.85
2018-07-03T16:34:56.736Z,24.44
2018-07-03T16:35:56.800Z,25.21
2018-07-03T16:37:49.805Z,24.91
2018-07-03T16:38:49.884Z,24.63
2018-07-03T16:40:42.890Z,24.73
2018-07-03T16:41:42.954Z,24.72
2018-07-03T16:43:35.957Z,25.21
2018-07-03T16:44:36.026Z,24.33
2018-07-03T16:46:29.039Z,24.43
2018-07-03T16:47:29.113Z,25.10
2018-07-03T16:49:22.156Z,25.59
2018-07-03T16:50:22.199Z,25.69
2018-07-03T16:52:15.212Z,26.18
2018-07-03T16:53:15.278Z,25.41
2018-07-03T16:55:08.291Z,25.10
2018-07-03T16:56:08.354Z,25.51
2018-07-03T16:58:01.360Z,25.70
2018-07-03T16:59:01.438Z,26.18
2018-07-03T17:00:54.467Z,25.70
2018-07-03T17:01:54.502Z,25.60
2018-07-03T17:03:47.521Z,25.60
2018-07-03T17:04:47.590Z,26.29
2018-07-03T17:06:40.602Z,26.19
2018-07-03T17:07:40.660Z,26.47
2018-07-03T17:09:33.672Z,26.48
2018-07-03T17:10:33.739Z,26.09
2018-07-03T17:12:26.749Z,26.47
2018-07-03T17:13:26.814Z,26.09
2018-07-03T17:15:19.835Z,25.30
2018-07-03T17:16:19.890Z,25.49
2018-07-03T17:18:12.900Z,25.98
2018-07-03T17:19:12.972Z,25.40
2018-07-03T17:21:05.984Z,25.98
2018-07-03T17:22:06.045Z,25.59
2018-07-03T17:23:59.050Z,26.37
2018-07-03T17:24:59.122Z,25.59
2018-07-03T17:26:52.138Z,25.49
2018-07-03T17:27:52.200Z,25.59
2018-07-03T17:29:45.208Z,26.08
2018-07-03T17:30:45.271Z,26.28
2018-07-03T17:32:38.281Z,26.65
2018-07-03T17:33:38.367Z,26.36
2018-07-03T17:35:31.357Z,27.62
2018-07-03T17:36:31.422Z,27.14
2018-07-03T17:38:24.428Z,27.14
2018-07-03T17:39:24.500Z,27.43
2018-07-03T17:41:17.528Z,27.82
2018-07-03T17:42:17.573Z,27.83
2018-07-03T17:44:10.582Z,26.95
2018-07-03T17:45:10.650Z,26.65
2018-07-03T17:47:04.168Z,27.72
2018-07-03T17:48:04.230Z,27.72
2018-07-03T17:49:57.234Z,28.11
2018-07-03T17:50:57.307Z,28.40
2018-07-03T17:52:50.324Z,28.59
2018-07-03T17:53:50.378Z,28.69
2018-07-03T17:55:43.409Z,29.57
2018-07-03T17:56:43.464Z,29.38
2018-07-03T17:58:36.469Z,29.96
2018-07-03T17:59:36.541Z,30.52
2018-07-03T18:01:29.544Z,30.14
2018-07-03T18:02:29.612Z,30.14
2018-07-03T18:04:22.613Z,30.33
2018-07-03T18:05:22.685Z,30.33
2018-07-03T18:07:15.694Z,31.21
2018-07-03T18:08:15.758Z,30.43
2018-07-03T18:10:08.768Z,31.01
2018-07-03T18:11:08.833Z,31.21
2018-07-03T18:13:01.841Z,31.11
2018-07-03T18:14:01.913Z,30.91
2018-07-03T18:15:54.912Z,31.30
2018-07-03T18:16:54.981Z,31.11
2018-07-03T18:18:47.992Z,32.07
2018-07-03T18:19:48.055Z,32.45
2018-07-03T18:21:41.130Z,32.75
2018-07-03T18:22:41.136Z,32.35
2018-07-03T18:24:34.145Z,33.43
2018-07-03T18:25:34.214Z,33.33
2018-07-03T18:27:27.226Z,33.53
2018-07-03T18:28:27.286Z,33.81
2018-07-03T18:30:20.287Z,34.59
2018-07-03T18:31:20.357Z,34.09
2018-07-03T18:33:13.368Z,35.55
2018-07-03T18:34:13.433Z,37.10